Home PIREPS Pireps

Flight BEL483

  • Submitted By: Marc Toussaint
  • Departure Airport: Bruxelles National (EBBR)
  • Arrival Airport: Madrid / Barajas (LEMD)
  • Aircraft: A330-223 (OO-SFZ)
  • Flight Time: 02.14
  • Date Submitted: 09/08/2017
  • Route: EBBR-LEMD
  • Status: Accepted
Flight Details
Gross Revenue:
(237 load / € 0.00 per unit
€ 0.00
Fuel Cost:
(23653 fuel used @ 0 / unit)
€ 0.00

Additional Log Information:

View Log

Aircraft Used in flight is FSPXAI Airbus A350-941XWB Delta Airlines N501DN
14:23 Brakes are On
14:27 Landing Gear Up @ 7 Knots and 190 Feet
14:28 Brakes are Released
14:30 Brakes are On
14:31 Brakes are Released
14:33 Brakes are On
14:33 Brakes are Released
14:34 Brakes are On
14:34 Brakes are Released
14:41 You Took off @ 167 Knots and Flaps at Position 1
Departure Weather
EBBR 091220Z 22008KT 180V240 9999 FEW037 19/09 Q1016 NOSIGrn
14:41 Landing Gear Up @ 174 Knots and 230 Feet
16:28 Landing Gear Down @ 243 Knots and 2440 Feet
16:30 You Landed @ 147 Knots and with -200 Vertical Speed
Arrival Weather
LEMD 091400Z VRB03KT 9999 FEW040 28/09 Q1015 NOSIGrn
16:32 Brakes are On
16:32 Brakes are Released
16:37 Brakes are On
16:38 Paused
16:38 Brussels Bel-Track1.0.1.2

Route Map

Corporate About Us Our Team Vacancies Information Fleet Route Network Rules and Regulations Operations Flight Schedules Event Center Tours Partners IVAO Vatsim Acars dev FSCB

fb Users Online No pilots online!
0 Pilot(s) and 197 Guest(s) Online
CMS by phpVMS - Design by Crazycreatives.com - Copyright © 2018 - Brussels Airlines Virtual